createdAt,value
2019-03-01T00:00:15.740Z,6.83
2019-03-01T00:01:05.591Z,5.90
2019-03-01T00:02:01.924Z,7.50
2019-03-01T00:02:39.961Z,6.57
2019-03-01T00:03:17.038Z,6.83
2019-03-01T00:04:10.430Z,7.13
2019-03-01T00:05:40.544Z,7.60
2019-03-01T00:06:26.969Z,8.00
2019-03-01T00:07:40.517Z,7.73
2019-03-01T00:08:20.453Z,6.17
2019-03-01T00:09:44.739Z,7.90
2019-03-01T00:11:01.942Z,7.80
2019-03-01T00:12:11.429Z,6.67
2019-03-01T00:13:25.148Z,7.33
2019-03-01T00:14:54.135Z,6.67
2019-03-01T00:16:06.362Z,7.30
2019-03-01T00:17:18.481Z,7.50
2019-03-01T00:18:37.983Z,7.10
2019-03-01T00:19:42.827Z,6.50
2019-03-01T00:20:57.307Z,5.13
2019-03-01T00:22:10.996Z,6.50
2019-03-01T00:23:32.009Z,5.83
2019-03-01T00:24:39.402Z,6.73
2019-03-01T00:26:10.960Z,6.87
2019-03-01T00:27:38.272Z,5.87
2019-03-01T00:28:37.947Z,5.33
2019-03-01T00:29:48.562Z,6.07
2019-03-01T00:31:06.364Z,5.23
2019-03-01T00:32:10.512Z,6.30
2019-03-01T00:33:18.266Z,7.00
2019-03-01T00:34:24.693Z,6.70
2019-03-01T00:36:06.166Z,5.60
2019-03-01T00:37:22.120Z,7.43
2019-03-01T00:38:46.731Z,5.47
2019-03-01T00:39:34.105Z,5.70
2019-03-01T00:40:36.816Z,6.27
2019-03-01T00:41:59.223Z,6.83
2019-03-01T00:43:07.774Z,7.23
2019-03-01T00:44:20.648Z,5.87
2019-03-01T00:44:58.574Z,8.23
2019-03-01T00:45:34.974Z,7.40
2019-03-01T00:46:12.632Z,7.33
2019-03-01T00:46:50.074Z,6.43
2019-03-01T00:47:26.428Z,7.57
2019-03-01T00:48:03.596Z,6.60
2019-03-01T00:48:39.935Z,6.50
2019-03-01T00:49:17.858Z,6.60
2019-03-01T00:49:54.114Z,6.37
2019-03-01T00:50:30.512Z,7.30
2019-03-01T00:51:06.879Z,7.43
2019-03-01T00:51:43.107Z,6.40
2019-03-01T00:52:20.442Z,6.60
2019-03-01T00:52:59.442Z,7.30
2019-03-01T00:53:35.778Z,6.57
2019-03-01T00:54:12.149Z,6.90
2019-03-01T00:54:49.553Z,7.83
2019-03-01T00:55:25.925Z,7.20
2019-03-01T00:56:05.813Z,7.53
2019-03-01T00:56:43.342Z,7.27
2019-03-01T00:57:20.959Z,7.77
2019-03-01T00:57:57.288Z,6.90
2019-03-01T00:58:50.187Z,8.33
2019-03-01T00:59:28.666Z,6.27
2019-03-01T01:00:08.338Z,6.73
2019-03-01T01:00:50.661Z,6.47
2019-03-01T01:01:27.944Z,7.00
2019-03-01T01:02:07.808Z,6.93
2019-03-01T01:02:49.039Z,7.80
2019-03-01T01:03:30.272Z,7.57
2019-03-01T01:04:07.782Z,7.60
2019-03-01T01:04:46.146Z,7.43
2019-03-01T01:05:26.673Z,6.67
2019-03-01T01:06:06.750Z,6.57
2019-03-01T01:06:44.649Z,5.80
2019-03-01T01:07:21.557Z,4.60
2019-03-01T01:07:58.910Z,6.73
2019-03-01T01:08:46.472Z,6.10
2019-03-01T01:09:26.724Z,6.10
2019-03-01T01:10:03.649Z,6.50
2019-03-01T01:10:40.666Z,8.57
2019-03-01T01:11:17.726Z,6.07
2019-03-01T01:11:54.888Z,6.87
2019-03-01T01:12:35.296Z,6.40
2019-03-01T01:13:12.409Z,7.90
2019-03-01T01:13:52.971Z,6.60
2019-03-01T01:14:30.484Z,6.07
2019-03-01T01:15:10.052Z,7.60
2019-03-01T01:15:48.759Z,6.83
2019-03-01T01:16:27.086Z,6.43
2019-03-01T01:17:04.151Z,6.63
2019-03-01T01:17:49.978Z,5.53
2019-03-01T01:18:29.964Z,6.60
2019-03-01T01:19:10.052Z,7.83
2019-03-01T01:19:46.971Z,5.63
2019-03-01T01:20:31.055Z,6.83
2019-03-01T01:21:08.249Z,6.70
2019-03-01T01:21:47.058Z,8.57
2019-03-01T01:22:23.849Z,8.63
2019-03-01T01:23:00.982Z,7.17
2019-03-01T01:23:43.874Z,5.63
2019-03-01T01:24:23.462Z,6.03
2019-03-01T01:25:00.660Z,6.20
2019-03-01T01:25:41.210Z,5.77
2019-03-01T01:26:21.162Z,6.90
2019-03-01T01:26:59.806Z,7.10
2019-03-01T01:27:36.337Z,7.80
2019-03-01T01:28:12.614Z,8.33
2019-03-01T01:28:48.887Z,7.80
2019-03-01T01:29:26.837Z,7.00
2019-03-01T01:30:03.238Z,6.17
2019-03-01T01:30:40.836Z,6.73
2019-03-01T01:31:17.113Z,6.50
2019-03-01T01:31:56.650Z,6.80
2019-03-01T01:32:36.761Z,7.87
2019-03-01T01:33:13.962Z,7.87
2019-03-01T01:33:54.606Z,7.60
2019-03-01T01:34:30.914Z,6.60
2019-03-01T01:35:07.716Z,6.87
2019-03-01T01:35:49.769Z,6.27
2019-03-01T01:36:26.925Z,6.30
2019-03-01T01:37:06.417Z,6.50
2019-03-01T01:37:44.688Z,6.30
2019-03-01T01:38:21.862Z,6.60
2019-03-01T01:38:59.326Z,6.70
2019-03-01T01:39:36.750Z,6.57
2019-03-01T01:40:13.557Z,6.63
2019-03-01T01:40:51.054Z,5.93
2019-03-01T01:41:28.533Z,5.97
2019-03-01T01:42:05.294Z,6.60
2019-03-01T01:42:42.639Z,6.60
2019-03-01T01:43:22.430Z,6.30
2019-03-01T01:43:58.891Z,6.77
2019-03-01T01:44:40.392Z,8.13
2019-03-01T01:45:17.238Z,7.00
2019-03-01T01:46:00.156Z,7.37
2019-03-01T01:46:37.625Z,7.93
2019-03-01T01:47:13.980Z,6.97
2019-03-01T01:47:50.317Z,6.70
2019-03-01T01:48:27.750Z,7.40
2019-03-01T01:49:04.086Z,6.90
2019-03-01T01:49:40.560Z,5.67
2019-03-01T01:50:18.443Z,6.10
2019-03-01T01:50:54.908Z,7.60
2019-03-01T01:51:31.245Z,7.10
2019-03-01T01:52:07.476Z,6.60
2019-03-01T01:52:46.659Z,7.10
2019-03-01T01:53:23.011Z,6.60
2019-03-01T01:54:00.109Z,6.63
2019-03-01T01:54:36.471Z,7.53
2019-03-01T01:55:12.904Z,5.97
2019-03-01T01:55:49.364Z,6.80
2019-03-01T01:56:27.137Z,6.37
2019-03-01T01:57:03.453Z,7.10
2019-03-01T01:57:39.730Z,6.30
2019-03-01T01:58:16.094Z,6.30
2019-03-01T01:58:52.299Z,7.90
2019-03-01T01:59:28.640Z,7.13
2019-03-01T02:00:07.529Z,7.17
2019-03-01T02:00:43.974Z,7.07
2019-03-01T02:01:20.322Z,7.30
2019-03-01T02:01:56.694Z,7.40
2019-03-01T02:02:33.033Z,6.80
2019-03-01T02:03:11.307Z,7.03
2019-03-01T02:03:47.690Z,7.37
2019-03-01T02:04:24.181Z,5.90
2019-03-01T02:05:01.745Z,5.70
2019-03-01T02:05:39.321Z,5.63
2019-03-01T02:06:15.731Z,7.20
2019-03-01T02:06:53.207Z,6.00
2019-03-01T02:07:29.572Z,6.20
2019-03-01T02:08:07.589Z,6.37
2019-03-01T02:08:43.958Z,5.97
2019-03-01T02:09:29.201Z,5.17
2019-03-01T02:10:07.203Z,5.73
2019-03-01T02:10:43.721Z,7.93
2019-03-01T02:11:20.358Z,6.93
2019-03-01T02:11:56.734Z,6.10
2019-03-01T02:12:38.276Z,6.23
2019-03-01T02:13:14.820Z,6.40
2019-03-01T02:13:51.753Z,6.90
2019-03-01T02:14:30.796Z,6.63
2019-03-01T02:15:08.282Z,6.00
2019-03-01T02:15:44.859Z,6.77
2019-03-01T02:16:21.437Z,7.30
2019-03-01T02:16:57.984Z,7.27
2019-03-01T02:17:34.609Z,5.77
2019-03-01T02:18:11.210Z,6.57
2019-03-01T02:18:57.421Z,5.93
2019-03-01T02:19:27.585Z,7.00
2019-03-01T02:20:05.401Z,6.23
2019-03-01T02:20:42.345Z,6.77
2019-03-01T02:21:19.873Z,6.27
2019-03-01T02:21:56.158Z,7.47
2019-03-01T02:22:33.910Z,6.40
2019-03-01T02:23:13.232Z,7.03
2019-03-01T02:23:57.528Z,7.60
2019-03-01T02:24:33.751Z,6.00
2019-03-01T02:25:11.282Z,6.33
2019-03-01T02:25:47.620Z,6.70
2019-03-01T02:26:25.496Z,6.30
2019-03-01T02:27:22.356Z,7.10
2019-03-01T02:28:02.294Z,6.93
2019-03-01T02:28:39.143Z,6.60
2019-03-01T02:29:16.877Z,7.40
2019-03-01T02:29:53.256Z,6.80
2019-03-01T02:30:30.381Z,7.50
2019-03-01T02:31:07.871Z,5.90
2019-03-01T02:31:55.943Z,7.07
2019-03-01T02:32:39.529Z,6.03
2019-03-01T02:33:16.054Z,6.00
2019-03-01T02:33:52.518Z,6.40
2019-03-01T02:34:28.859Z,6.37
2019-03-01T02:35:05.155Z,7.47
2019-03-01T02:35:43.893Z,6.37
2019-03-01T02:36:20.240Z,6.57
2019-03-01T02:36:56.594Z,5.80
2019-03-01T02:37:32.931Z,6.00
2019-03-01T02:38:30.833Z,6.80
2019-03-01T02:39:07.573Z,7.60
2019-03-01T02:39:44.919Z,6.57
2019-03-01T02:40:21.439Z,7.00
2019-03-01T02:40:59.057Z,6.60
2019-03-01T02:41:35.843Z,6.50
2019-03-01T02:42:12.095Z,6.80
2019-03-01T02:42:50.086Z,7.30
2019-03-01T02:43:29.561Z,6.37
2019-03-01T02:44:12.144Z,6.70
2019-03-01T02:44:48.646Z,6.90
2019-03-01T02:45:26.847Z,7.33
2019-03-01T02:46:03.200Z,7.13
2019-03-01T02:46:48.607Z,6.87
2019-03-01T02:47:25.080Z,6.70
2019-03-01T02:48:03.130Z,6.93
2019-03-01T02:48:52.929Z,6.23
2019-03-01T02:49:29.175Z,6.10
2019-03-01T02:50:05.713Z,7.93
2019-03-01T02:50:46.665Z,7.70
2019-03-01T02:51:45.413Z,7.57
2019-03-01T02:52:21.844Z,7.00
2019-03-01T02:52:58.206Z,7.07
2019-03-01T02:53:38.582Z,7.27
2019-03-01T02:54:14.724Z,6.90
2019-03-01T02:54:51.278Z,6.53
2019-03-01T02:55:47.086Z,7.03
2019-03-01T02:56:25.708Z,7.30
2019-03-01T02:57:05.025Z,7.40
2019-03-01T02:57:52.290Z,8.00
2019-03-01T02:58:29.890Z,7.23
2019-03-01T02:59:08.923Z,6.13
2019-03-01T02:59:49.915Z,6.63
2019-03-01T03:00:32.627Z,7.50
2019-03-01T03:01:10.459Z,6.40
2019-03-01T03:01:50.900Z,6.10
2019-03-01T03:02:30.798Z,6.70
2019-03-01T03:03:08.937Z,8.13
2019-03-01T03:03:48.364Z,7.80
2019-03-01T03:04:29.043Z,7.00
2019-03-01T03:05:21.755Z,7.10
2019-03-01T03:06:29.701Z,8.13
2019-03-01T03:07:26.008Z,6.37
2019-03-01T03:08:04.334Z,6.10
2019-03-01T03:08:50.892Z,5.47
2019-03-01T03:09:28.041Z,7.73
2019-03-01T03:10:05.244Z,8.67
2019-03-01T03:10:42.917Z,6.53
2019-03-01T03:11:22.021Z,8.53
2019-03-01T03:12:00.455Z,6.47
2019-03-01T03:12:53.849Z,7.37
2019-03-01T03:13:30.144Z,6.97
2019-03-01T03:14:11.503Z,6.67
2019-03-01T03:14:50.306Z,6.70
2019-03-01T03:15:42.500Z,7.77
2019-03-01T03:16:20.730Z,7.03
2019-03-01T03:17:00.902Z,6.30
2019-03-01T03:17:37.450Z,7.47
2019-03-01T03:18:14.932Z,7.60
2019-03-01T03:19:01.884Z,6.50
2019-03-01T03:19:39.770Z,6.60
2019-03-01T03:20:16.604Z,8.00
2019-03-01T03:21:11.998Z,7.00
2019-03-01T03:22:03.981Z,8.30
2019-03-01T03:22:40.467Z,6.77
2019-03-01T03:23:20.434Z,8.57
2019-03-01T03:24:25.373Z,7.53
2019-03-01T03:25:03.009Z,7.07
2019-03-01T03:25:44.983Z,7.30
2019-03-01T03:26:22.362Z,7.53
2019-03-01T03:26:58.837Z,6.57
2019-03-01T03:27:37.408Z,7.70
2019-03-01T03:28:19.633Z,8.93
2019-03-01T03:28:59.980Z,6.97
2019-03-01T03:29:38.686Z,6.30
2019-03-01T03:30:15.859Z,6.97
2019-03-01T03:30:53.552Z,7.07
2019-03-01T03:31:30.751Z,7.07
2019-03-01T03:32:07.135Z,6.83
2019-03-01T03:32:49.770Z,7.07
2019-03-01T03:33:32.148Z,6.97
2019-03-01T03:34:08.537Z,6.60
2019-03-01T03:34:45.987Z,8.77
2019-03-01T03:35:22.840Z,7.07
2019-03-01T03:36:00.429Z,6.43
2019-03-01T03:36:37.259Z,6.70
2019-03-01T03:37:13.509Z,6.73
2019-03-01T03:37:50.329Z,6.90
2019-03-01T03:38:27.923Z,7.17
2019-03-01T03:39:09.900Z,4.97
2019-03-01T03:39:53.941Z,7.00
2019-03-01T03:40:30.261Z,6.30
2019-03-01T03:41:09.819Z,6.40
2019-03-01T03:41:50.065Z,7.17
2019-03-01T03:42:27.498Z,6.13
2019-03-01T03:43:03.959Z,6.00
2019-03-01T03:43:41.996Z,5.70
2019-03-01T03:44:19.335Z,6.23
2019-03-01T03:45:01.926Z,6.20
2019-03-01T03:45:38.285Z,6.70
2019-03-01T03:46:14.651Z,6.50
2019-03-01T03:46:52.296Z,7.53
2019-03-01T03:47:32.605Z,5.80
2019-03-01T03:48:09.209Z,6.00
2019-03-01T03:48:45.650Z,7.43
2019-03-01T03:49:22.046Z,7.50
2019-03-01T03:50:00.517Z,7.80
2019-03-01T03:50:38.055Z,5.40
2019-03-01T03:51:14.568Z,6.00
2019-03-01T03:51:50.924Z,6.43
2019-03-01T03:52:27.311Z,6.20
2019-03-01T03:53:04.768Z,5.30
2019-03-01T03:53:41.140Z,6.83
2019-03-01T03:54:17.552Z,6.80
2019-03-01T03:54:56.748Z,6.30
2019-03-01T03:55:33.334Z,5.43
2019-03-01T03:56:09.606Z,5.87
2019-03-01T03:56:46.025Z,5.43
2019-03-01T03:57:22.501Z,6.40
2019-03-01T03:57:58.851Z,6.20
2019-03-01T03:58:36.877Z,5.80
2019-03-01T03:59:13.299Z,5.80
2019-03-01T03:59:49.467Z,5.17
2019-03-01T04:00:26.792Z,6.57
2019-03-01T04:01:03.133Z,4.73
2019-03-01T04:01:39.483Z,4.30
2019-03-01T04:02:15.818Z,6.30
2019-03-01T04:02:52.298Z,6.00
2019-03-01T04:03:28.719Z,6.13
2019-03-01T04:04:05.067Z,6.10
2019-03-01T04:04:42.615Z,6.80
2019-03-01T04:05:18.994Z,6.10
2019-03-01T04:05:55.261Z,5.60
2019-03-01T04:06:31.597Z,5.87
2019-03-01T04:07:07.988Z,6.83
2019-03-01T04:07:44.340Z,5.40
2019-03-01T04:08:27.574Z,6.20
2019-03-01T04:09:12.408Z,6.83
2019-03-01T04:09:48.761Z,6.90
2019-03-01T04:10:25.257Z,6.20
2019-03-01T04:11:01.710Z,6.00
2019-03-01T04:11:38.063Z,6.43
2019-03-01T04:12:18.060Z,5.80
2019-03-01T04:12:55.384Z,5.47
2019-03-01T04:13:31.760Z,6.27
2019-03-01T04:14:08.178Z,7.23
2019-03-01T04:14:44.604Z,5.20
2019-03-01T04:15:20.869Z,6.17
2019-03-01T04:16:03.753Z,5.80
2019-03-01T04:16:42.177Z,5.37
2019-03-01T04:17:20.487Z,5.53
2019-03-01T04:17:56.970Z,5.80
2019-03-01T04:18:38.065Z,6.00
2019-03-01T04:19:14.641Z,5.77
2019-03-01T04:20:14.029Z,5.80
2019-03-01T04:20:50.531Z,5.13
2019-03-01T04:21:28.005Z,6.17
2019-03-01T04:22:06.066Z,6.10
2019-03-01T04:22:42.393Z,5.77
2019-03-01T04:23:19.361Z,6.33
2019-03-01T04:23:56.105Z,5.50
2019-03-01T04:24:33.957Z,5.77
2019-03-01T04:25:11.401Z,5.83
2019-03-01T04:25:52.131Z,5.97
2019-03-01T04:26:28.767Z,5.90
2019-03-01T04:27:05.689Z,6.07
2019-03-01T04:27:46.185Z,4.73
2019-03-01T04:28:22.503Z,7.20
2019-03-01T04:29:07.803Z,5.70
2019-03-01T04:29:44.221Z,5.70
2019-03-01T04:30:50.008Z,5.83
2019-03-01T04:31:31.282Z,6.07
2019-03-01T04:32:16.688Z,6.00
2019-03-01T04:32:53.114Z,6.17
2019-03-01T04:33:29.289Z,6.30
2019-03-01T04:34:06.132Z,6.93
2019-03-01T04:34:44.221Z,6.93
2019-03-01T04:35:21.702Z,6.40
2019-03-01T04:35:58.804Z,6.90
2019-03-01T04:37:12.404Z,5.97
2019-03-01T04:37:48.863Z,6.50
2019-03-01T04:38:29.501Z,5.90
2019-03-01T04:39:08.911Z,5.90
2019-03-01T04:39:45.053Z,6.17
2019-03-01T04:40:21.376Z,6.17
2019-03-01T04:40:58.139Z,6.40
2019-03-01T04:41:36.063Z,5.50
2019-03-01T04:42:17.359Z,6.70
2019-03-01T04:42:54.300Z,6.90
2019-03-01T04:43:30.853Z,6.40
2019-03-01T04:44:08.668Z,6.10
2019-03-01T04:44:45.642Z,5.70
2019-03-01T04:45:25.174Z,6.53
2019-03-01T04:46:01.696Z,6.43
2019-03-01T04:46:38.040Z,7.83
2019-03-01T04:47:19.603Z,5.43
2019-03-01T04:47:56.810Z,6.00
2019-03-01T04:48:33.053Z,6.70
2019-03-01T04:49:13.132Z,5.33
2019-03-01T04:49:49.805Z,6.30
2019-03-01T04:50:26.163Z,5.93
2019-03-01T04:51:05.012Z,5.50
2019-03-01T04:51:41.884Z,5.30
2019-03-01T04:52:35.656Z,7.83
2019-03-01T04:53:14.490Z,6.60
2019-03-01T04:53:51.202Z,5.87
2019-03-01T04:54:27.498Z,4.87
2019-03-01T04:55:03.806Z,5.90
2019-03-01T04:55:42.424Z,5.67
2019-03-01T04:56:18.966Z,5.57
2019-03-01T04:56:55.420Z,5.33
2019-03-01T04:57:31.793Z,5.80
2019-03-01T04:58:08.088Z,5.50
2019-03-01T04:58:44.439Z,6.10
2019-03-01T04:59:23.039Z,5.47
2019-03-01T04:59:59.699Z,6.57
2019-03-01T05:00:35.909Z,6.07
2019-03-01T05:01:12.494Z,6.33
2019-03-01T05:01:48.965Z,5.70
2019-03-01T05:02:37.370Z,5.57
2019-03-01T05:03:15.363Z,6.50
2019-03-01T05:03:51.654Z,5.93
2019-03-01T05:04:28.835Z,6.00
2019-03-01T05:05:09.309Z,4.77
2019-03-01T05:05:47.190Z,6.03
2019-03-01T05:06:45.447Z,7.33
2019-03-01T05:07:21.761Z,6.17
2019-03-01T05:07:58.058Z,5.33
2019-03-01T05:08:34.523Z,6.07
2019-03-01T05:09:12.295Z,5.17
2019-03-01T05:09:48.795Z,5.70
2019-03-01T05:10:27.974Z,5.43
2019-03-01T05:11:05.560Z,5.43
2019-03-01T05:11:41.885Z,5.53
2019-03-01T05:12:28.894Z,5.90
2019-03-01T05:13:11.281Z,5.50
2019-03-01T05:13:49.717Z,6.33
2019-03-01T05:14:27.418Z,6.47
2019-03-01T05:15:03.728Z,6.33
2019-03-01T05:15:41.611Z,6.13
2019-03-01T05:16:19.426Z,6.67
2019-03-01T05:16:59.332Z,5.53
2019-03-01T05:17:39.841Z,5.63
2019-03-01T05:18:16.199Z,6.47
2019-03-01T05:18:52.565Z,6.63
2019-03-01T05:19:28.801Z,5.83
2019-03-01T05:20:05.913Z,5.37
2019-03-01T05:20:42.240Z,5.77
2019-03-01T05:21:18.710Z,5.77
2019-03-01T05:21:55.053Z,5.43
2019-03-01T05:22:51.240Z,5.43
2019-03-01T05:23:27.426Z,5.57
2019-03-01T05:24:05.753Z,5.20
2019-03-01T05:24:42.054Z,6.10
2019-03-01T05:25:18.277Z,6.00
2019-03-01T05:25:54.562Z,5.63
2019-03-01T05:26:33.085Z,6.50
2019-03-01T05:27:09.377Z,5.17
2019-03-01T05:27:55.606Z,6.10
2019-03-01T05:28:41.197Z,5.20
2019-03-01T05:29:18.450Z,6.70
2019-03-01T05:29:56.839Z,6.03
2019-03-01T05:30:33.133Z,5.30
2019-03-01T05:31:09.955Z,6.10
2019-03-01T05:31:52.789Z,5.80
2019-03-01T05:32:32.518Z,5.70
2019-03-01T05:33:11.621Z,5.57
2019-03-01T05:33:48.383Z,5.60
2019-03-01T05:34:29.249Z,5.10
2019-03-01T05:35:09.277Z,5.30
2019-03-01T05:35:45.830Z,5.20
2019-03-01T05:36:32.686Z,4.80
2019-03-01T05:37:10.643Z,5.47
2019-03-01T05:37:55.700Z,5.03
2019-03-01T05:38:34.541Z,4.80
2019-03-01T05:39:14.486Z,4.97
2019-03-01T05:39:52.990Z,5.10
2019-03-01T05:41:00.102Z,5.40
2019-03-01T05:41:37.893Z,5.03
2019-03-01T05:42:51.020Z,5.97
2019-03-01T05:43:31.038Z,5.27
2019-03-01T05:44:07.361Z,5.37
2019-03-01T05:44:47.102Z,4.87
2019-03-01T05:45:24.387Z,5.50
2019-03-01T05:46:00.678Z,6.10
2019-03-01T05:46:37.202Z,5.17
2019-03-01T05:47:16.349Z,4.23
2019-03-01T05:47:52.548Z,6.07
2019-03-01T05:48:30.184Z,5.00
2019-03-01T05:49:06.365Z,4.40
2019-03-01T05:49:48.707Z,5.30
2019-03-01T05:50:26.139Z,5.40
2019-03-01T05:51:03.093Z,4.57
2019-03-01T05:51:39.443Z,5.93
2019-03-01T05:52:19.079Z,4.90
2019-03-01T05:52:56.736Z,6.03
2019-03-01T05:53:33.163Z,5.57
2019-03-01T05:54:12.395Z,5.40
2019-03-01T05:54:48.599Z,5.20
2019-03-01T05:55:25.123Z,4.80
2019-03-01T05:56:01.723Z,4.60
2019-03-01T05:56:40.818Z,4.63
2019-03-01T05:57:18.515Z,5.03
2019-03-01T05:58:31.121Z,5.60
2019-03-01T05:59:18.649Z,5.40
2019-03-01T05:59:57.405Z,5.30
2019-03-01T06:00:33.915Z,6.10
2019-03-01T06:01:40.475Z,5.93
2019-03-01T06:03:00.756Z,4.90
2019-03-01T06:04:15.274Z,5.70
2019-03-01T06:04:55.363Z,5.43
2019-03-01T06:05:38.026Z,5.23
2019-03-01T06:06:33.501Z,5.30
2019-03-01T06:07:29.838Z,4.80
2019-03-01T06:08:35.003Z,4.83
2019-03-01T06:09:56.948Z,5.03
2019-03-01T06:10:56.009Z,4.40
2019-03-01T06:11:44.130Z,5.50
2019-03-01T06:12:48.125Z,5.30
2019-03-01T06:14:04.933Z,5.70
2019-03-01T06:15:20.043Z,5.20
2019-03-01T06:16:40.268Z,5.07
2019-03-01T06:18:01.026Z,4.90
2019-03-01T06:19:12.440Z,5.73
2019-03-01T06:20:15.731Z,5.70
2019-03-01T06:21:04.845Z,5.97
2019-03-01T06:22:36.427Z,5.40
2019-03-01T06:23:24.059Z,5.40
2019-03-01T06:24:41.443Z,5.70
2019-03-01T06:26:03.493Z,4.30
2019-03-01T06:27:19.510Z,4.30
2019-03-01T06:28:40.365Z,4.97
2019-03-01T06:29:37.330Z,4.40
2019-03-01T06:30:51.811Z,4.63
2019-03-01T06:32:34.831Z,5.17
2019-03-01T06:33:32.150Z,4.40
2019-03-01T06:34:52.767Z,4.97
2019-03-01T06:35:57.267Z,5.13
2019-03-01T06:36:52.538Z,5.53
2019-03-01T06:38:35.285Z,5.27
2019-03-01T06:40:14.043Z,4.67
2019-03-01T06:41:47.760Z,4.10
2019-03-01T06:43:27.543Z,4.67
2019-03-01T06:44:53.646Z,4.63
2019-03-01T06:46:06.121Z,5.50
2019-03-01T06:47:08.676Z,5.57
2019-03-01T06:47:51.719Z,5.30
2019-03-01T06:48:56.106Z,4.97
2019-03-01T06:49:55.923Z,3.77
2019-03-01T06:51:03.161Z,5.03
2019-03-01T06:51:46.597Z,4.47
2019-03-01T06:52:23.339Z,3.97
2019-03-01T06:53:03.796Z,4.50
2019-03-01T06:53:40.907Z,4.90
2019-03-01T06:54:17.231Z,4.30
2019-03-01T06:54:54.663Z,4.40
2019-03-01T06:55:52.531Z,5.57
2019-03-01T06:56:31.673Z,5.17
2019-03-01T06:57:08.114Z,4.77
2019-03-01T06:57:44.619Z,4.80
2019-03-01T06:58:35.031Z,3.90
2019-03-01T06:59:12.940Z,4.10
2019-03-01T06:59:49.403Z,4.27
2019-03-01T07:00:35.198Z,4.37
2019-03-01T07:01:23.866Z,4.20
2019-03-01T07:02:00.135Z,5.00
2019-03-01T07:02:41.640Z,4.90
2019-03-01T07:03:18.005Z,4.00
2019-03-01T07:04:09.837Z,4.70
2019-03-01T07:04:48.074Z,5.20
2019-03-01T07:05:27.327Z,5.00
2019-03-01T07:06:03.888Z,5.17
2019-03-01T07:06:40.361Z,4.53
2019-03-01T07:07:19.182Z,4.97
2019-03-01T07:07:56.343Z,4.80
2019-03-01T07:08:34.240Z,4.13
2019-03-01T07:09:10.706Z,5.43
2019-03-01T07:09:51.478Z,5.03
2019-03-01T07:10:30.256Z,5.87
2019-03-01T07:11:06.699Z,4.20
2019-03-01T07:11:43.141Z,5.07
2019-03-01T07:12:19.419Z,4.03
2019-03-01T07:12:55.690Z,4.90
2019-03-01T07:13:42.846Z,4.60
2019-03-01T07:14:19.250Z,4.73
2019-03-01T07:14:58.193Z,5.03
2019-03-01T07:15:34.585Z,5.70
2019-03-01T07:16:10.878Z,5.03
2019-03-01T07:16:50.015Z,4.77
2019-03-01T07:17:26.682Z,5.33
2019-03-01T07:18:14.000Z,4.90
2019-03-01T07:18:50.359Z,4.73
2019-03-01T07:19:28.016Z,5.77
2019-03-01T07:20:22.742Z,4.90
2019-03-01T07:20:59.188Z,6.03
2019-03-01T07:21:36.657Z,5.67
2019-03-01T07:22:13.281Z,6.30
2019-03-01T07:22:49.512Z,6.47
2019-03-01T07:23:25.939Z,6.33
2019-03-01T07:24:02.452Z,5.37
2019-03-01T07:24:41.711Z,5.50
2019-03-01T07:25:17.896Z,5.67
2019-03-01T07:25:59.349Z,5.77
2019-03-01T07:26:37.388Z,6.07
2019-03-01T07:27:15.300Z,5.90
2019-03-01T07:27:53.082Z,4.27
2019-03-01T07:28:29.430Z,5.30
2019-03-01T07:29:05.737Z,5.60
2019-03-01T07:30:05.011Z,5.90
2019-03-01T07:30:47.508Z,5.40
2019-03-01T07:31:23.843Z,5.07
2019-03-01T07:32:21.661Z,4.53
2019-03-01T07:32:59.297Z,5.50
2019-03-01T07:33:38.246Z,6.80
2019-03-01T07:34:14.742Z,6.20
2019-03-01T07:34:52.250Z,5.10
2019-03-01T07:35:34.417Z,5.27
2019-03-01T07:36:10.580Z,4.93
2019-03-01T07:36:51.436Z,5.63
2019-03-01T07:37:28.597Z,5.80
2019-03-01T07:38:09.804Z,5.50
2019-03-01T07:38:46.045Z,6.60
2019-03-01T07:39:23.768Z,4.83
2019-03-01T07:40:01.253Z,6.17
2019-03-01T07:40:40.174Z,7.33
2019-03-01T07:41:16.496Z,6.30
2019-03-01T07:41:56.419Z,4.77
2019-03-01T07:42:32.758Z,4.27
2019-03-01T07:43:15.216Z,5.97
2019-03-01T07:43:52.382Z,4.87
2019-03-01T07:44:30.914Z,6.10
2019-03-01T07:45:09.044Z,5.80
2019-03-01T07:45:45.840Z,5.00
2019-03-01T07:46:24.209Z,5.40
2019-03-01T07:47:00.595Z,5.50
2019-03-01T07:48:07.076Z,6.13
2019-03-01T07:48:46.438Z,7.30
2019-03-01T07:49:22.631Z,4.57
2019-03-01T07:49:58.838Z,4.87
2019-03-01T07:50:40.678Z,5.03
2019-03-01T07:51:20.066Z,4.90
2019-03-01T07:52:01.770Z,5.93
2019-03-01T07:52:36.601Z,4.70
2019-03-01T07:53:14.249Z,5.83
2019-03-01T07:54:00.604Z,7.50
2019-03-01T07:54:39.893Z,4.87
2019-03-01T07:55:17.383Z,5.17
2019-03-01T07:55:54.052Z,6.13
2019-03-01T07:56:30.298Z,6.17
2019-03-01T07:57:06.559Z,4.50
2019-03-01T07:57:46.532Z,5.63
2019-03-01T07:58:21.762Z,5.23
2019-03-01T07:59:00.232Z,5.47
2019-03-01T07:59:39.504Z,5.23
2019-03-01T08:00:17.415Z,4.60
2019-03-01T08:00:54.755Z,4.90
2019-03-01T08:01:31.142Z,5.20
2019-03-01T08:02:09.105Z,5.00
2019-03-01T08:02:47.249Z,4.93
2019-03-01T08:03:24.704Z,5.10
2019-03-01T08:04:02.042Z,5.70
2019-03-01T08:04:41.232Z,5.40
2019-03-01T08:05:17.443Z,5.73
2019-03-01T08:05:53.718Z,5.57
2019-03-01T08:06:32.787Z,6.20
2019-03-01T08:07:10.145Z,4.70
2019-03-01T08:07:55.660Z,5.57
2019-03-01T08:08:26.442Z,5.83
2019-03-01T08:09:04.724Z,5.47
2019-03-01T08:09:44.484Z,5.13
2019-03-01T08:10:22.471Z,6.40
2019-03-01T08:11:00.107Z,5.27
2019-03-01T08:11:36.381Z,6.07
2019-03-01T08:12:14.706Z,6.97
2019-03-01T08:12:50.934Z,4.87
2019-03-01T08:13:27.375Z,5.00
2019-03-01T08:14:24.580Z,4.70
2019-03-01T08:15:04.120Z,6.03
2019-03-01T08:15:40.864Z,5.17
2019-03-01T08:16:20.081Z,6.00
2019-03-01T08:16:56.857Z,5.67
2019-03-01T08:17:33.193Z,4.80
2019-03-01T08:18:10.654Z,5.10
2019-03-01T08:18:47.449Z,5.17
2019-03-01T08:19:23.923Z,4.83
2019-03-01T08:20:00.302Z,4.87
2019-03-01T08:21:06.412Z,4.90
2019-03-01T08:21:46.063Z,5.63
2019-03-01T08:22:25.119Z,5.70
2019-03-01T08:23:02.070Z,6.13
2019-03-01T08:23:38.561Z,6.30
2019-03-01T08:24:25.725Z,5.67
2019-03-01T08:25:03.485Z,5.57
2019-03-01T08:26:05.865Z,5.40
2019-03-01T08:26:43.215Z,5.10
2019-03-01T08:27:19.679Z,5.53
2019-03-01T08:27:56.517Z,5.23
2019-03-01T08:28:32.748Z,4.63
2019-03-01T08:29:34.008Z,5.20
2019-03-01T08:30:15.640Z,4.87
2019-03-01T08:30:52.074Z,4.97
2019-03-01T08:31:29.478Z,5.50
2019-03-01T08:32:11.823Z,5.33
2019-03-01T08:32:48.179Z,5.17
2019-03-01T08:33:28.657Z,5.80
2019-03-01T08:34:17.785Z,4.50
2019-03-01T08:35:01.416Z,5.80
2019-03-01T08:35:38.728Z,5.45
2019-03-01T08:36:15.055Z,5.03
2019-03-01T08:36:51.291Z,5.57
2019-03-01T08:37:28.472Z,5.00
2019-03-01T08:38:04.805Z,5.67
2019-03-01T08:38:43.780Z,5.73
2019-03-01T08:39:26.835Z,5.67
2019-03-01T08:40:04.489Z,6.67
2019-03-01T08:40:46.639Z,4.93
2019-03-01T08:41:26.212Z,4.50
2019-03-01T08:42:03.737Z,6.10
2019-03-01T08:42:41.917Z,5.80
2019-03-01T08:43:18.955Z,6.70
2019-03-01T08:44:02.725Z,6.23
2019-03-01T08:44:39.037Z,5.73
2019-03-01T08:45:18.787Z,6.50
2019-03-01T08:45:55.442Z,5.63
2019-03-01T08:46:31.610Z,5.40
2019-03-01T08:47:27.599Z,6.40
2019-03-01T08:48:03.795Z,5.53
2019-03-01T08:48:41.598Z,6.07
2019-03-01T08:49:17.976Z,6.70
2019-03-01T08:49:57.917Z,5.70
2019-03-01T08:50:34.841Z,6.30
2019-03-01T08:51:13.592Z,5.60
2019-03-01T08:51:50.822Z,6.80
2019-03-01T08:52:28.993Z,5.97
2019-03-01T08:53:07.674Z,5.87
2019-03-01T08:53:44.097Z,5.93
2019-03-01T08:54:22.903Z,6.30
2019-03-01T08:55:00.021Z,5.13
2019-03-01T08:55:42.506Z,6.87
2019-03-01T08:56:25.899Z,5.63
2019-03-01T08:56:57.110Z,6.47
2019-03-01T08:57:44.028Z,6.30
2019-03-01T08:58:17.635Z,5.87
2019-03-01T08:59:03.239Z,7.57
2019-03-01T08:59:46.001Z,5.07
2019-03-01T09:00:26.999Z,6.07
2019-03-01T09:01:08.354Z,6.30
2019-03-01T09:02:04.696Z,6.73
2019-03-01T09:02:48.425Z,6.37
2019-03-01T09:03:43.903Z,5.70
2019-03-01T09:04:50.694Z,5.40
2019-03-01T09:05:23.531Z,6.70
2019-03-01T09:05:59.866Z,7.03
2019-03-01T09:06:41.743Z,5.30
2019-03-01T09:07:21.094Z,5.70
2019-03-01T09:08:00.926Z,6.10
2019-03-01T09:08:43.043Z,5.90
2019-03-01T09:09:40.852Z,5.47
2019-03-01T09:10:18.125Z,6.77
2019-03-01T09:10:57.481Z,5.50
2019-03-01T09:11:34.851Z,5.47
2019-03-01T09:12:17.853Z,6.13
2019-03-01T09:12:56.020Z,5.77
2019-03-01T09:13:33.678Z,5.43
2019-03-01T09:14:10.012Z,5.90
2019-03-01T09:14:47.708Z,5.90
2019-03-01T09:15:26.242Z,6.53
2019-03-01T09:16:15.793Z,5.67
2019-03-01T09:17:19.827Z,6.17
2019-03-01T09:17:57.051Z,6.00
2019-03-01T09:18:34.046Z,6.40
2019-03-01T09:19:16.522Z,6.67
2019-03-01T09:19:52.867Z,6.80
2019-03-01T09:20:32.461Z,6.50
2019-03-01T09:21:12.270Z,6.30
2019-03-01T09:21:50.273Z,6.13
2019-03-01T09:22:28.100Z,6.40
2019-03-01T09:23:19.754Z,6.67
2019-03-01T09:23:48.008Z,6.57
2019-03-01T09:24:25.812Z,6.40
2019-03-01T09:25:06.346Z,5.33
2019-03-01T09:25:46.126Z,6.03